createdAt,value
2022-12-07T00:00:39.767Z,606.06
2022-12-07T00:01:39.940Z,606.29
2022-12-07T00:02:39.866Z,606.07
2022-12-07T00:03:39.827Z,605.11
2022-12-07T00:04:39.879Z,604.74
2022-12-07T00:05:39.779Z,603.83
2022-12-07T00:06:39.771Z,603.1
2022-12-07T00:07:42.819Z,602.9
2022-12-07T00:08:39.780Z,602.34
2022-12-07T00:09:39.850Z,602.68
2022-12-07T00:10:39.784Z,602.39
2022-12-07T00:11:39.782Z,601.43
2022-12-07T00:12:39.787Z,601.81
2022-12-07T00:13:39.791Z,601.58
2022-12-07T00:14:39.814Z,601.2
2022-12-07T00:15:39.794Z,601.02
2022-12-07T00:16:39.858Z,601.32
2022-12-07T00:17:39.796Z,600.12
2022-12-07T00:18:42.913Z,600.09
2022-12-07T00:19:39.814Z,599.4
2022-12-07T00:20:39.803Z,599.41
2022-12-07T00:21:39.796Z,599.41
2022-12-07T00:22:39.806Z,599.35
2022-12-07T00:23:39.800Z,599.91
2022-12-07T00:24:39.822Z,600.29
2022-12-07T00:25:39.900Z,600.6
2022-12-07T00:26:39.837Z,600.11
2022-12-07T00:27:39.810Z,599.58
2022-12-07T00:28:39.806Z,598.99
2022-12-07T00:29:39.904Z,598.92
2022-12-07T00:30:39.825Z,599.35
2022-12-07T00:31:40.165Z,598.78
2022-12-07T00:32:39.812Z,598.21
2022-12-07T00:33:39.850Z,598.25
2022-12-07T00:34:39.826Z,598.07
2022-12-07T00:35:39.824Z,598.18
2022-12-07T00:36:39.874Z,598.67
2022-12-07T00:37:39.822Z,598.63
2022-12-07T00:38:39.845Z,597.73
2022-12-07T00:39:39.831Z,598.06
2022-12-07T00:40:39.829Z,597.59
2022-12-07T00:41:39.848Z,597.55
2022-12-07T00:42:39.827Z,597.36
2022-12-07T00:43:39.838Z,596.98
2022-12-07T00:44:39.828Z,597.2
2022-12-07T00:45:39.902Z,596.84
2022-12-07T00:46:39.842Z,596.67
2022-12-07T00:47:39.840Z,595.38
2022-12-07T00:48:39.844Z,595.06
2022-12-07T00:49:39.839Z,594.53
2022-12-07T00:50:39.845Z,593.54
2022-12-07T00:51:39.841Z,593.41
2022-12-07T00:52:39.849Z,593.38
2022-12-07T00:53:41.787Z,593.67
2022-12-07T00:54:39.852Z,594.18
2022-12-07T00:55:39.855Z,594.18
2022-12-07T00:56:39.852Z,594.16
2022-12-07T00:57:39.880Z,593.61
2022-12-07T00:58:39.860Z,593.39
2022-12-07T00:59:39.859Z,593.51
2022-12-07T01:00:39.854Z,593
2022-12-07T01:01:39.909Z,592.56
2022-12-07T01:02:39.865Z,591.99
2022-12-07T01:03:39.982Z,591.78
2022-12-07T01:04:39.906Z,591.17
2022-12-07T01:05:40.888Z,590.83
2022-12-07T01:06:40.893Z,590.69
2022-12-07T01:07:39.883Z,590.84
2022-12-07T01:08:39.875Z,590.67
2022-12-07T01:09:39.876Z,590.68
2022-12-07T01:10:39.869Z,590.69
2022-12-07T01:11:39.872Z,590.88
2022-12-07T01:12:39.878Z,591.13
2022-12-07T01:13:39.904Z,591.21
2022-12-07T01:14:39.885Z,591.69
2022-12-07T01:15:39.884Z,591.72
2022-12-07T01:16:39.921Z,591.02
2022-12-07T01:17:39.881Z,590.84
2022-12-07T01:18:39.886Z,591.26
2022-12-07T01:19:39.897Z,590.98
2022-12-07T01:20:39.900Z,590.82
2022-12-07T01:21:39.887Z,592.01
2022-12-07T01:22:39.888Z,591.75
2022-12-07T01:23:39.890Z,591.58
2022-12-07T01:24:39.899Z,591.97
2022-12-07T01:25:39.900Z,592.32
2022-12-07T01:26:39.903Z,592.71
2022-12-07T01:27:39.912Z,592.56
2022-12-07T01:28:39.899Z,592.35
2022-12-07T01:29:39.947Z,592.52
2022-12-07T01:30:40.047Z,592.53
2022-12-07T01:31:39.912Z,592.58
2022-12-07T01:32:39.909Z,592.16
2022-12-07T01:33:39.922Z,591.05
2022-12-07T01:34:39.907Z,590.56
2022-12-07T01:35:39.910Z,589.77
2022-12-07T01:36:39.924Z,589.8
2022-12-07T01:37:39.921Z,589.94
2022-12-07T01:38:39.915Z,590.6
2022-12-07T01:39:39.917Z,590.7
2022-12-07T01:40:42.966Z,590.74
2022-12-07T01:41:39.928Z,589.74
2022-12-07T01:42:39.922Z,590.78
2022-12-07T01:43:39.928Z,590.12
2022-12-07T01:44:39.931Z,590.94
2022-12-07T01:45:39.952Z,591.39
2022-12-07T01:46:40.008Z,591.45
2022-12-07T01:47:39.930Z,592.13
2022-12-07T01:48:39.938Z,591.9
2022-12-07T01:49:39.939Z,591.91
2022-12-07T01:50:39.944Z,592.63
2022-12-07T01:51:39.951Z,592.14
2022-12-07T01:52:39.939Z,592.5
2022-12-07T01:53:39.944Z,591.93
2022-12-07T01:54:39.947Z,592.15
2022-12-07T01:55:39.941Z,592.53
2022-12-07T01:56:39.950Z,592.11
2022-12-07T01:57:39.954Z,592.03
2022-12-07T01:58:39.951Z,591.25
2022-12-07T01:59:39.957Z,591.97
2022-12-07T02:00:39.961Z,592.55
2022-12-07T02:01:40.032Z,592.92
2022-12-07T02:02:40.008Z,593.11
2022-12-07T02:03:39.955Z,593.06
2022-12-07T02:04:39.956Z,593.82
2022-12-07T02:05:39.956Z,593.38
2022-12-07T02:06:39.965Z,593.59
2022-12-07T02:07:40.019Z,593.22
2022-12-07T02:08:39.967Z,593.35
2022-12-07T02:09:39.964Z,593.59
2022-12-07T02:10:39.966Z,592.97
2022-12-07T02:11:39.975Z,593.22
2022-12-07T02:12:42.982Z,592.64
2022-12-07T02:13:39.979Z,592.73
2022-12-07T02:14:39.974Z,591.6
2022-12-07T02:15:39.997Z,591.53
2022-12-07T02:16:39.974Z,591.43
2022-12-07T02:17:40.002Z,591.37
2022-12-07T02:18:39.985Z,590.96
2022-12-07T02:19:39.988Z,591.51
2022-12-07T02:20:39.987Z,590.73
2022-12-07T02:21:39.986Z,591.65
2022-12-07T02:22:39.990Z,591.7
2022-12-07T02:23:43.100Z,591.65
2022-12-07T02:24:39.997Z,591.63
2022-12-07T02:25:39.996Z,591.6
2022-12-07T02:26:39.997Z,592.29
2022-12-07T02:27:39.991Z,591.24
2022-12-07T02:28:39.993Z,591.13
2022-12-07T02:29:40.047Z,590
2022-12-07T02:30:40.025Z,588.91
2022-12-07T02:31:40.006Z,588.35
2022-12-07T02:32:39.998Z,586.95
2022-12-07T02:33:40.034Z,585.76
2022-12-07T02:34:43.145Z,585.92
2022-12-07T02:35:40.011Z,585.64
2022-12-07T02:36:40.012Z,586.53
2022-12-07T02:37:40.009Z,585.53
2022-12-07T02:38:40.010Z,586.01
2022-12-07T02:39:40.013Z,585.6
2022-12-07T02:40:40.025Z,584.47
2022-12-07T02:41:40.014Z,585.02
2022-12-07T02:42:40.016Z,584.67
2022-12-07T02:43:40.024Z,584.52
2022-12-07T02:44:40.027Z,584.99
2022-12-07T02:45:43.048Z,584.19
2022-12-07T02:46:40.138Z,583.58
2022-12-07T02:47:40.023Z,584.09
2022-12-07T02:48:40.043Z,583.33
2022-12-07T02:49:40.055Z,582.03
2022-12-07T02:50:40.038Z,581.74
2022-12-07T02:51:40.035Z,580.15
2022-12-07T02:52:40.042Z,580.32
2022-12-07T02:53:40.035Z,580.31
2022-12-07T02:54:40.031Z,579.25
2022-12-07T02:55:40.043Z,579.1
2022-12-07T02:56:40.038Z,577.9
2022-12-07T02:57:40.037Z,577.36
2022-12-07T02:58:40.043Z,577.55
2022-12-07T02:59:40.044Z,576.27
2022-12-07T03:00:40.042Z,576.19
2022-12-07T03:01:40.112Z,575.87
2022-12-07T03:02:40.106Z,575.1
2022-12-07T03:03:40.047Z,574.97
2022-12-07T03:04:40.055Z,574.69
2022-12-07T03:05:40.075Z,574.25
2022-12-07T03:06:40.054Z,573.36
2022-12-07T03:07:40.092Z,572.88
2022-12-07T03:08:40.055Z,572.45
2022-12-07T03:09:40.062Z,572
2022-12-07T03:10:40.059Z,569.91
2022-12-07T03:11:40.064Z,568.51
2022-12-07T03:12:40.070Z,568.6
2022-12-07T03:13:40.068Z,567.26
2022-12-07T03:14:40.065Z,565.88
2022-12-07T03:15:40.141Z,565.79
2022-12-07T03:16:40.066Z,565.35
2022-12-07T03:17:40.068Z,564.44
2022-12-07T03:18:40.080Z,563.5
2022-12-07T03:19:40.084Z,564.26
2022-12-07T03:20:40.095Z,563.8
2022-12-07T03:21:40.107Z,564.17
2022-12-07T03:22:40.089Z,563.79
2022-12-07T03:23:40.078Z,562.83
2022-12-07T03:24:40.085Z,561.36
2022-12-07T03:25:40.085Z,561.28
2022-12-07T03:26:40.088Z,560.09
2022-12-07T03:27:40.088Z,559.94
2022-12-07T03:28:40.088Z,560.07
2022-12-07T03:29:40.098Z,559.38
2022-12-07T03:30:40.167Z,559.64
2022-12-07T03:31:40.174Z,558.87
2022-12-07T03:32:40.101Z,558.51
2022-12-07T03:33:40.096Z,558.15
2022-12-07T03:34:40.103Z,557.32
2022-12-07T03:35:40.120Z,556.89
2022-12-07T03:36:40.100Z,556.49
2022-12-07T03:37:40.135Z,555.77
2022-12-07T03:38:40.109Z,556.41
2022-12-07T03:39:40.110Z,556.31
2022-12-07T03:40:40.128Z,556.37
2022-12-07T03:41:44.879Z,555.85
2022-12-07T03:42:40.110Z,556.04
2022-12-07T03:43:40.116Z,556.19
2022-12-07T03:44:40.116Z,555.82
2022-12-07T03:45:40.139Z,554.2
2022-12-07T03:46:40.175Z,553
2022-12-07T03:47:40.115Z,551.6
2022-12-07T03:48:40.130Z,549.75
2022-12-07T03:49:40.126Z,548.22
2022-12-07T03:50:40.152Z,547.91
2022-12-07T03:51:40.124Z,546.31
2022-12-07T03:52:40.136Z,546.01
2022-12-07T03:53:40.152Z,546.02
2022-12-07T03:54:40.127Z,544.69
2022-12-07T03:55:40.160Z,544.69
2022-12-07T03:56:40.140Z,544.61
2022-12-07T03:57:40.137Z,543.68
2022-12-07T03:58:40.142Z,543.08
2022-12-07T03:59:40.137Z,542.71
2022-12-07T04:00:40.172Z,541.94
2022-12-07T04:01:40.185Z,541.97
2022-12-07T04:02:40.207Z,541.21
2022-12-07T04:03:40.151Z,540.62
2022-12-07T04:04:40.148Z,540.43
2022-12-07T04:05:40.166Z,540.08
2022-12-07T04:06:40.146Z,539.52
2022-12-07T04:07:40.452Z,539.13
2022-12-07T04:08:40.152Z,538.36
2022-12-07T04:09:40.180Z,537.51
2022-12-07T04:10:40.198Z,536.22
2022-12-07T04:11:40.157Z,534.89
2022-12-07T04:12:40.157Z,533.98
2022-12-07T04:13:40.163Z,531.49
2022-12-07T04:14:40.167Z,530.17
2022-12-07T04:15:40.223Z,528.63
2022-12-07T04:16:44.381Z,527.91
2022-12-07T04:17:40.168Z,526.95
2022-12-07T04:18:40.173Z,525.54
2022-12-07T04:19:40.166Z,524.96
2022-12-07T04:20:40.200Z,524.2
2022-12-07T04:21:40.177Z,523.86
2022-12-07T04:22:41.223Z,523.66
2022-12-07T04:23:40.179Z,523.2
2022-12-07T04:24:40.174Z,523.58
2022-12-07T04:25:40.233Z,523.39
2022-12-07T04:26:40.177Z,522.84
2022-12-07T04:27:40.179Z,522.56
2022-12-07T04:28:40.193Z,523.77
2022-12-07T04:29:40.183Z,523.37
2022-12-07T04:30:40.213Z,524.07
2022-12-07T04:31:40.306Z,524.29
2022-12-07T04:32:40.193Z,524.52
2022-12-07T04:33:40.194Z,524.7
2022-12-07T04:34:40.198Z,524.73
2022-12-07T04:35:40.215Z,524.49
2022-12-07T04:36:40.193Z,523.86
2022-12-07T04:37:40.206Z,523.71
2022-12-07T04:38:40.204Z,523.92
2022-12-07T04:39:43.052Z,522.97
2022-12-07T04:40:40.245Z,522.71
2022-12-07T04:41:40.235Z,522.13
2022-12-07T04:42:40.218Z,523.1
2022-12-07T04:43:40.206Z,523.49
2022-12-07T04:44:40.214Z,523.86
2022-12-07T04:45:40.231Z,524.24
2022-12-07T04:46:40.271Z,524.39
2022-12-07T04:47:40.208Z,524.43
2022-12-07T04:48:40.223Z,524.53
2022-12-07T04:49:40.215Z,525.5
2022-12-07T04:50:45.938Z,525.39
2022-12-07T04:51:40.224Z,526.13
2022-12-07T04:52:40.223Z,527.29
2022-12-07T04:53:40.221Z,527.43
2022-12-07T04:54:40.219Z,528.84
2022-12-07T04:55:40.228Z,529
2022-12-07T04:56:40.225Z,529.6
2022-12-07T04:57:40.258Z,531.08
2022-12-07T04:58:40.233Z,531.34
2022-12-07T04:59:45.216Z,532.09
2022-12-07T05:00:40.262Z,531.46
2022-12-07T05:01:43.323Z,531.32
2022-12-07T05:02:40.238Z,530.79
2022-12-07T05:03:40.239Z,529.61
2022-12-07T05:04:40.238Z,529.99
2022-12-07T05:05:40.245Z,529.45
2022-12-07T05:06:40.243Z,530.2
2022-12-07T05:07:40.284Z,530.03
2022-12-07T05:08:40.251Z,529.97
2022-12-07T05:09:40.252Z,530.79
2022-12-07T05:10:40.246Z,530.75
2022-12-07T05:11:40.368Z,531.58
2022-12-07T05:12:43.448Z,532.34
2022-12-07T05:13:40.257Z,532.49
2022-12-07T05:14:40.262Z,532.91
2022-12-07T05:15:40.259Z,533.87
2022-12-07T05:16:40.333Z,533.73
2022-12-07T05:17:40.256Z,534.46
2022-12-07T05:18:40.260Z,535.62
2022-12-07T05:19:40.265Z,535.81
2022-12-07T05:20:42.556Z,536.43
2022-12-07T05:21:40.264Z,535.29
2022-12-07T05:22:40.265Z,534.67
2022-12-07T05:23:43.249Z,535.23
2022-12-07T05:24:40.269Z,535.49
2022-12-07T05:25:40.276Z,536.42
2022-12-07T05:26:40.276Z,537.4
2022-12-07T05:27:40.281Z,536.73
2022-12-07T05:28:40.300Z,537.89
2022-12-07T05:29:40.283Z,538.27
2022-12-07T05:30:40.279Z,539.63
2022-12-07T05:31:40.347Z,540.37
2022-12-07T05:32:40.284Z,540.79
2022-12-07T05:33:40.288Z,540.58
2022-12-07T05:34:40.285Z,541.16
2022-12-07T05:35:40.291Z,541.48
2022-12-07T05:36:40.302Z,542.26
2022-12-07T05:37:40.288Z,542.81
2022-12-07T05:38:40.287Z,543.02
2022-12-07T05:39:40.291Z,542.27
2022-12-07T05:40:40.298Z,542.27
2022-12-07T05:41:40.294Z,542.04
2022-12-07T05:42:40.301Z,542.42
2022-12-07T05:43:40.363Z,542.78
2022-12-07T05:44:40.346Z,543.37
2022-12-07T05:45:40.429Z,542.79
2022-12-07T05:46:40.308Z,543.52
2022-12-07T05:47:40.313Z,544.11
2022-12-07T05:48:40.318Z,543.62
2022-12-07T05:49:40.314Z,544.42
2022-12-07T05:50:40.318Z,544.62
2022-12-07T05:51:40.352Z,544.57
2022-12-07T05:52:40.312Z,544.16
2022-12-07T05:53:40.316Z,544.95
2022-12-07T05:54:40.332Z,544.39
2022-12-07T05:55:40.330Z,545.07
2022-12-07T05:56:40.346Z,544.65
2022-12-07T05:57:40.343Z,545.01
2022-12-07T05:58:40.321Z,545.05
2022-12-07T05:59:40.322Z,545.41
2022-12-07T06:00:40.361Z,544.55
2022-12-07T06:01:40.412Z,543.95
2022-12-07T06:02:40.444Z,544.14
2022-12-07T06:03:40.337Z,544.31
2022-12-07T06:04:40.332Z,544.11
2022-12-07T06:05:40.448Z,544.52
2022-12-07T06:06:40.455Z,544.32
2022-12-07T06:07:40.409Z,545.26
2022-12-07T06:08:40.337Z,546.41
2022-12-07T06:09:40.339Z,546.58
2022-12-07T06:10:40.350Z,546.75
2022-12-07T06:11:40.404Z,546.74
2022-12-07T06:12:40.348Z,547.68
2022-12-07T06:13:45.453Z,547.54
2022-12-07T06:14:40.349Z,548.38
2022-12-07T06:15:40.353Z,547.9
2022-12-07T06:16:40.438Z,548.94
2022-12-07T06:17:40.361Z,547.92
2022-12-07T06:18:40.352Z,547.35
2022-12-07T06:19:40.355Z,547.39
2022-12-07T06:20:40.366Z,547.03
2022-12-07T06:21:40.390Z,547.15
2022-12-07T06:22:40.357Z,547
2022-12-07T06:23:40.359Z,546.3
2022-12-07T06:24:40.365Z,545.49
2022-12-07T06:25:40.443Z,545.13
2022-12-07T06:26:40.386Z,545.1
2022-12-07T06:27:40.367Z,544.56
2022-12-07T06:28:40.369Z,544.73
2022-12-07T06:29:40.370Z,544.76
2022-12-07T06:30:40.377Z,544.99
2022-12-07T06:31:40.440Z,544.92
2022-12-07T06:32:40.402Z,545.5
2022-12-07T06:33:40.374Z,545.51
2022-12-07T06:34:43.182Z,545.49
2022-12-07T06:35:40.387Z,546.21
2022-12-07T06:36:40.403Z,547.34
2022-12-07T06:37:40.388Z,547.51
2022-12-07T06:38:40.382Z,546.74
2022-12-07T06:39:40.389Z,547.91
2022-12-07T06:40:40.389Z,546.54
2022-12-07T06:41:40.456Z,545.73
2022-12-07T06:42:40.389Z,545.73
2022-12-07T06:43:40.392Z,546.14
2022-12-07T06:44:40.398Z,546.69
2022-12-07T06:45:40.426Z,547.34
2022-12-07T06:46:40.419Z,547.88
2022-12-07T06:47:40.955Z,548.46
2022-12-07T06:48:40.425Z,548.5
2022-12-07T06:49:43.390Z,549.23
2022-12-07T06:50:40.409Z,549.63
2022-12-07T06:51:40.434Z,550.12
2022-12-07T06:52:40.405Z,550.47
2022-12-07T06:53:40.407Z,550.54
2022-12-07T06:54:40.410Z,552.07
2022-12-07T06:55:40.418Z,551.71
2022-12-07T06:56:41.154Z,551.33
2022-12-07T06:57:40.422Z,550.64
2022-12-07T06:58:40.467Z,549.83
2022-12-07T06:59:40.422Z,548.73
2022-12-07T07:00:40.425Z,548.75
2022-12-07T07:01:40.488Z,547.63
2022-12-07T07:02:40.507Z,548.87
2022-12-07T07:03:40.432Z,547.64
2022-12-07T07:04:40.449Z,548.44
2022-12-07T07:05:40.458Z,547.73
2022-12-07T07:06:41.125Z,547.92
2022-12-07T07:07:52.063Z,547.56
2022-12-07T07:08:40.474Z,547.7
2022-12-07T07:09:40.449Z,548.43
2022-12-07T07:10:40.439Z,548.45
2022-12-07T07:11:40.440Z,549.17
2022-12-07T07:12:40.440Z,549.66
2022-12-07T07:13:40.443Z,549.57
2022-12-07T07:14:40.449Z,549.91
2022-12-07T07:15:40.451Z,550.34
2022-12-07T07:16:40.502Z,551
2022-12-07T07:17:43.557Z,550.93
2022-12-07T07:18:40.453Z,551.2
2022-12-07T07:19:40.449Z,550.34
2022-12-07T07:20:40.492Z,550.35
2022-12-07T07:21:40.458Z,549.74
2022-12-07T07:22:40.454Z,549.87
2022-12-07T07:23:40.456Z,549.57
2022-12-07T07:24:40.462Z,549.98
2022-12-07T07:25:40.462Z,550.81
2022-12-07T07:26:40.458Z,549.91
2022-12-07T07:27:40.463Z,549.62
2022-12-07T07:28:43.574Z,550.16
2022-12-07T07:29:40.472Z,549.92
2022-12-07T07:30:40.505Z,549.2
2022-12-07T07:31:40.476Z,549.6
2022-12-07T07:32:40.474Z,549.76
2022-12-07T07:33:40.469Z,549.95
2022-12-07T07:34:40.472Z,551.29
2022-12-07T07:35:40.482Z,551.12
2022-12-07T07:36:40.511Z,552.46
2022-12-07T07:37:40.479Z,553.07
2022-12-07T07:38:40.487Z,553.63
2022-12-07T07:39:43.512Z,554.23
2022-12-07T07:40:40.491Z,554.98
2022-12-07T07:41:40.493Z,555.36
2022-12-07T07:42:40.487Z,556.19
2022-12-07T07:43:40.487Z,557.39
2022-12-07T07:44:40.499Z,558.74
2022-12-07T07:45:40.564Z,558.58
2022-12-07T07:46:40.577Z,559.96
2022-12-07T07:47:40.501Z,559.96
2022-12-07T07:48:40.499Z,560.91
2022-12-07T07:49:44.588Z,561.61
2022-12-07T07:50:43.508Z,561.83
2022-12-07T07:51:40.513Z,563.44
2022-12-07T07:52:40.543Z,564.55
2022-12-07T07:53:40.504Z,565.13
2022-12-07T07:54:40.533Z,565.39
2022-12-07T07:55:40.512Z,566.73
2022-12-07T07:56:40.540Z,566.53
2022-12-07T07:57:40.536Z,567.8
2022-12-07T07:58:40.537Z,568.78
2022-12-07T07:59:40.528Z,569.66
2022-12-07T08:00:40.520Z,570.21
2022-12-07T08:01:43.577Z,570.41
2022-12-07T08:02:40.529Z,571.02
2022-12-07T08:03:40.533Z,571.04
2022-12-07T08:04:40.609Z,571.81
2022-12-07T08:05:40.532Z,572.17
2022-12-07T08:06:43.516Z,572.71
2022-12-07T08:07:40.596Z,572.5
2022-12-07T08:08:40.565Z,572.46
2022-12-07T08:09:40.544Z,572.92
2022-12-07T08:10:40.543Z,573.97
2022-12-07T08:11:40.539Z,574.95
2022-12-07T08:12:40.536Z,576.12
2022-12-07T08:13:40.547Z,576.5
2022-12-07T08:14:40.534Z,576.8
2022-12-07T08:15:40.581Z,577.19
2022-12-07T08:16:40.548Z,577.9
2022-12-07T08:17:40.548Z,577.34
2022-12-07T08:18:40.547Z,578.21
2022-12-07T08:19:40.551Z,578.01
2022-12-07T08:20:40.548Z,578.7
2022-12-07T08:21:40.549Z,578.71
2022-12-07T08:22:40.554Z,579.83
2022-12-07T08:23:40.557Z,579.87
2022-12-07T08:24:40.588Z,580.35
2022-12-07T08:25:40.551Z,580.34
2022-12-07T08:26:40.635Z,581.11
2022-12-07T08:27:40.594Z,582.24
2022-12-07T08:28:40.563Z,583.12
2022-12-07T08:29:40.570Z,584.74
2022-12-07T08:30:40.677Z,585.15
2022-12-07T08:31:40.675Z,586.56
2022-12-07T08:32:40.563Z,587.7
2022-12-07T08:33:40.569Z,589.47
2022-12-07T08:34:40.571Z,589.01
2022-12-07T08:35:40.574Z,589.83
2022-12-07T08:36:40.572Z,588.84
2022-12-07T08:37:40.571Z,588.91
2022-12-07T08:38:40.570Z,589.24
2022-12-07T08:39:40.577Z,589.06
2022-12-07T08:40:40.599Z,589.78
2022-12-07T08:41:40.580Z,590.39
2022-12-07T08:42:40.584Z,590.82
2022-12-07T08:43:40.580Z,591.06
2022-12-07T08:44:40.588Z,591.6
2022-12-07T08:45:40.581Z,591.75
2022-12-07T08:46:40.637Z,592.13
2022-12-07T08:47:40.590Z,592.94
2022-12-07T08:48:40.596Z,595.27
2022-12-07T08:49:40.599Z,599.12
2022-12-07T08:50:44.539Z,601.15
2022-12-07T08:51:40.596Z,602.1
2022-12-07T08:52:40.595Z,603.19
2022-12-07T08:53:40.595Z,604.19
2022-12-07T08:54:40.600Z,604.14
2022-12-07T08:55:40.606Z,604.16
2022-12-07T08:56:40.625Z,604.95
2022-12-07T08:57:40.614Z,604.73
2022-12-07T08:58:40.600Z,605.19
2022-12-07T08:59:40.610Z,605.8
2022-12-07T09:00:40.606Z,605.58
2022-12-07T09:01:40.769Z,605.65
2022-12-07T09:02:40.610Z,605.9
2022-12-07T09:03:40.616Z,605.07
2022-12-07T09:04:40.613Z,602.5
2022-12-07T09:05:40.664Z,602.41
2022-12-07T09:06:40.689Z,601.46
2022-12-07T09:07:40.677Z,601.5
2022-12-07T09:08:40.622Z,600.59
2022-12-07T09:09:40.629Z,600.82
2022-12-07T09:10:40.649Z,600.77
2022-12-07T09:11:40.627Z,600.91
2022-12-07T09:12:40.658Z,601.72
2022-12-07T09:13:40.635Z,601.83
2022-12-07T09:14:40.635Z,601.17
2022-12-07T09:15:40.694Z,601.06
2022-12-07T09:16:40.741Z,601.73
2022-12-07T09:17:40.637Z,602.92
2022-12-07T09:18:40.640Z,603.87
2022-12-07T09:19:40.639Z,605.67
2022-12-07T09:20:40.646Z,606.62
2022-12-07T09:21:40.647Z,607.88
2022-12-07T09:22:40.641Z,609.05
2022-12-07T09:23:40.641Z,608.39
2022-12-07T09:24:40.656Z,608.61
2022-12-07T09:25:40.644Z,609.52
2022-12-07T09:26:40.651Z,609.69
2022-12-07T09:27:40.646Z,609.67
2022-12-07T09:28:40.686Z,610.03
2022-12-07T09:29:40.657Z,610.35
2022-12-07T09:30:59.791Z,611.26
2022-12-07T09:31:40.684Z,611.06
2022-12-07T09:32:40.657Z,611.3
2022-12-07T09:33:43.792Z,609.99
2022-12-07T09:34:40.828Z,609.82
2022-12-07T09:35:40.661Z,610.32
2022-12-07T09:36:40.682Z,610.87
2022-12-07T09:37:40.675Z,612.2
2022-12-07T09:38:40.668Z,612.28
2022-12-07T09:39:44.743Z,611.76
2022-12-07T09:40:40.672Z,613.27
2022-12-07T09:41:40.676Z,613.6
2022-12-07T09:42:40.931Z,614.05
2022-12-07T09:43:40.676Z,614.82
2022-12-07T09:44:43.451Z,614.97
2022-12-07T09:45:43.220Z,614.97
2022-12-07T09:46:40.710Z,615.84
2022-12-07T09:47:40.683Z,615.97
2022-12-07T09:48:40.684Z,617.28
2022-12-07T09:49:40.680Z,617.43
2022-12-07T09:50:40.688Z,618.14
2022-12-07T09:51:40.691Z,618.63
2022-12-07T09:52:40.691Z,619.53
2022-12-07T09:53:40.689Z,619.9
2022-12-07T09:54:40.699Z,620.51
2022-12-07T09:55:43.718Z,620.46
2022-12-07T09:56:40.697Z,621.97
2022-12-07T09:57:40.694Z,622.29
2022-12-07T09:58:40.698Z,623.71
2022-12-07T09:59:40.703Z,624.37
2022-12-07T10:00:40.721Z,625.59
2022-12-07T10:01:40.740Z,626.4
2022-12-07T10:02:40.772Z,626.98
2022-12-07T10:03:40.702Z,627.89
2022-12-07T10:04:40.778Z,629.42
2022-12-07T10:05:40.705Z,630.91
2022-12-07T10:06:43.816Z,632.96
2022-12-07T10:07:40.751Z,634.75
2022-12-07T10:08:40.718Z,636.81
2022-12-07T10:09:40.715Z,637.97
2022-12-07T10:10:40.727Z,639.38
2022-12-07T10:11:40.713Z,639.71
2022-12-07T10:12:41.103Z,641
2022-12-07T10:13:40.733Z,642.2
2022-12-07T10:15:40.773Z,644.37
2022-12-07T10:16:40.826Z,645.07
2022-12-07T10:17:44.216Z,645.91
2022-12-07T10:18:40.730Z,646.99
2022-12-07T10:19:40.726Z,647.63
2022-12-07T10:20:40.728Z,647.97
2022-12-07T10:21:40.729Z,648.96
2022-12-07T10:22:40.753Z,649.89
2022-12-07T10:23:40.747Z,649.29
2022-12-07T10:24:40.732Z,649.48
2022-12-07T10:25:40.750Z,648.75
2022-12-07T10:26:40.736Z,648.56
2022-12-07T10:27:40.777Z,648.56
2022-12-07T10:28:42.367Z,648.2
2022-12-07T10:29:40.748Z,648.2
2022-12-07T10:30:40.744Z,648.33
2022-12-07T10:31:40.864Z,648.52
2022-12-07T10:32:40.794Z,648.72
2022-12-07T10:33:40.767Z,649.79
2022-12-07T10:34:42.778Z,649.7
2022-12-07T10:35:40.799Z,651.27
2022-12-07T10:36:40.752Z,652.2
2022-12-07T10:37:40.782Z,652.69
2022-12-07T10:38:40.756Z,653.07
2022-12-07T10:39:40.761Z,653.39
2022-12-07T10:40:44.922Z,654.29
2022-12-07T10:41:40.770Z,653.37
2022-12-07T10:42:40.781Z,652.96
2022-12-07T10:43:40.774Z,652.89
2022-12-07T10:44:40.839Z,652.9
2022-12-07T10:45:47.077Z,653.54
2022-12-07T10:46:40.808Z,653.77
2022-12-07T10:47:40.799Z,654.71
2022-12-07T10:48:40.800Z,655.37
2022-12-07T10:49:40.777Z,655.76
2022-12-07T10:50:40.775Z,654.89
2022-12-07T10:51:40.791Z,655.13
2022-12-07T10:52:40.808Z,654
2022-12-07T10:53:40.777Z,653.45
2022-12-07T10:54:40.805Z,654.06
2022-12-07T10:55:40.788Z,653.47
2022-12-07T10:56:40.782Z,653.1
2022-12-07T10:57:40.813Z,654.33
2022-12-07T10:58:40.794Z,654.88
2022-12-07T10:59:40.789Z,656.07
2022-12-07T11:00:40.831Z,656.8
2022-12-07T11:01:40.837Z,657.43
2022-12-07T11:02:40.866Z,657.79
2022-12-07T11:03:40.803Z,658.11
2022-12-07T11:04:40.830Z,658.23
2022-12-07T11:05:40.801Z,657.21
2022-12-07T11:06:40.806Z,657.31
2022-12-07T11:07:40.890Z,657.67
2022-12-07T11:08:40.801Z,656.75
2022-12-07T11:10:07.143Z,656.97
2022-12-07T11:10:40.870Z,656.37
2022-12-07T11:11:40.811Z,656.42
2022-12-07T11:12:40.850Z,656.87
2022-12-07T11:13:40.806Z,656.91
2022-12-07T11:14:40.820Z,657.63
2022-12-07T11:15:40.815Z,658.62
2022-12-07T11:16:40.891Z,659.67
2022-12-07T11:17:40.848Z,659.16
2022-12-07T11:18:40.818Z,660.4
2022-12-07T11:19:40.818Z,661.31
2022-12-07T11:20:40.850Z,661.8
2022-12-07T11:21:40.827Z,662.45
2022-12-07T11:22:40.874Z,663.13
2022-12-07T11:23:40.831Z,662.9
2022-12-07T11:24:40.849Z,662.76
2022-12-07T11:25:40.827Z,662.7
2022-12-07T11:26:40.836Z,663.26
2022-12-07T11:27:40.868Z,663.16
2022-12-07T11:28:40.832Z,663.48
2022-12-07T11:29:40.841Z,663.41
2022-12-07T11:30:40.853Z,663.58
2022-12-07T11:31:40.922Z,664.31
2022-12-07T11:32:40.872Z,665.03
2022-12-07T11:33:40.853Z,664.55
2022-12-07T11:34:40.848Z,664.53
2022-12-07T11:35:40.843Z,664.47
2022-12-07T11:36:40.897Z,664.86
2022-12-07T11:38:40.871Z,666.28
2022-12-07T11:39:40.868Z,666.81
2022-12-07T11:40:40.874Z,668.02
2022-12-07T11:41:40.867Z,668.12
2022-12-07T11:42:40.876Z,668.6
2022-12-07T11:43:40.859Z,668.79
2022-12-07T11:44:40.859Z,668.63
2022-12-07T11:45:40.864Z,668.48
2022-12-07T11:46:40.868Z,668.09
2022-12-07T11:47:40.907Z,667.8
2022-12-07T11:48:41.887Z,667.92
2022-12-07T11:49:40.870Z,667.4
2022-12-07T11:50:40.868Z,667.23
2022-12-07T11:51:40.870Z,667.53
2022-12-07T11:52:40.922Z,668.26
2022-12-07T11:53:40.875Z,668.81
2022-12-07T11:54:40.872Z,667.72
2022-12-07T11:55:40.881Z,667.72
2022-12-07T11:56:40.878Z,668.23
2022-12-07T11:57:40.904Z,667.56
2022-12-07T11:58:40.881Z,667.88
2022-12-07T11:59:40.880Z,667.75
2022-12-07T12:00:40.923Z,667.49
2022-12-07T12:01:40.966Z,666.62
2022-12-07T12:02:41.006Z,665.75
2022-12-07T12:03:40.992Z,664.93
2022-12-07T12:04:40.895Z,664.9
2022-12-07T12:05:40.903Z,664.38
2022-12-07T12:06:40.894Z,664.13
2022-12-07T12:09:55.064Z,664.84
2022-12-07T12:10:53.973Z,664.66
2022-12-07T12:14:48.435Z,666
2022-12-07T12:15:46.872Z,666.71
2022-12-07T12:16:46.902Z,666.45
2022-12-07T12:17:49.921Z,667.36
2022-12-07T12:18:46.879Z,668.07
2022-12-07T12:19:46.897Z,667.89
2022-12-07T12:20:46.880Z,667
2022-12-07T12:21:46.885Z,667.02
2022-12-07T12:22:46.882Z,665.07
2022-12-07T12:23:46.878Z,664.44
2022-12-07T12:24:46.904Z,664.22
2022-12-07T12:25:46.952Z,664.17
2022-12-07T12:26:46.977Z,663.62
2022-12-07T12:27:46.887Z,664.29
2022-12-07T12:28:50.442Z,664.54
2022-12-07T12:29:46.920Z,664.09
2022-12-07T12:30:46.891Z,664.24
2022-12-07T12:31:46.927Z,664.83
2022-12-07T12:32:46.893Z,664.4
2022-12-07T12:33:46.897Z,664.21
2022-12-07T12:34:50.609Z,663.66
2022-12-07T12:35:46.897Z,664
2022-12-07T12:36:46.958Z,664.33
2022-12-07T12:37:46.901Z,664.02
2022-12-07T12:38:46.923Z,663.47